This is the latest recevied weather packets stored in our database for station/object W2BP-13. If no packets are shown the sender has not sent any weather packets the latest 10 day(s).
| Time | Temp. | Humidity | Pressure | Rain* | Wind** | Luminosity | Snow |
|---|---|---|---|---|---|---|---|
| 1778085633 | 22.22° C | 50% | 1019.1 hPa | 0 mm | - | - | - |
| 1778084733 | 21.11° C | 53% | 1019.3 hPa | 0 mm | - | - | - |
| 1778083833 | 20° C | 55% | 1019.2 hPa | 0 mm | - | - | - |
| 1778082933 | 20° C | 54% | 1019.4 hPa | 0 mm | - | - | - |
| 1778082033 | 20° C | 55% | 1019.3 hPa | 0 mm | - | - | - |
| 1778081133 | 18.33° C | 60% | 1019.2 hPa | 0 mm | - | - | - |
| 1778080233 | 17.78° C | 63% | 1019.2 hPa | 0 mm | - | - | - |
| 1778079333 | 17.78° C | 63% | 1019.1 hPa | 0 mm | - | - | - |
| 1778078433 | 17.22° C | 65% | 1019.3 hPa | 0 mm | - | - | - |
| 1778077533 | 16.11° C | 70% | 1018.9 hPa | 0 mm | - | - | - |
| 1778076633 | 15.56° C | 72% | 1018.9 hPa | 0 mm | - | - | - |
| 1778075733 | 15° C | 73% | 1018.9 hPa | 0 mm | - | - | - |
| 1778074832 | 14.44° C | 74% | 1018.6 hPa | 0 mm | - | - | - |
| 1778073933 | 13.33° C | 78% | 1018.4 hPa | 0 mm | - | - | - |
| 1778073032 | 12.78° C | 82% | 1018.3 hPa | 0 mm | - | - | - |
| 1778072133 | 12.22° C | 82% | 1018.2 hPa | 0 mm | - | - | - |
| 1778071233 | 12.22° C | 81% | 1018.2 hPa | 0 mm | - | - | - |
| 1778070333 | 12.22° C | 81% | 1018 hPa | 0 mm | - | - | - |
| 1778069433 | 12.22° C | 82% | 1017.7 hPa | 0 mm | - | - | - |
| 1778068532 | 12.78° C | 80% | 1017.6 hPa | 0 mm | - | - | - |
| 1778067633 | 12.78° C | 80% | 1017.6 hPa | 0 mm | - | - | - |
| 1778066733 | 13.33° C | 78% | 1017.3 hPa | 0 mm | - | - | - |
| 1778065833 | 13.89° C | 77% | 1017.2 hPa | 0 mm | - | - | - |
| 1778064932 | 13.89° C | 76% | 1017 hPa | 0 mm | - | - | - |
| 1778064033 | 13.89° C | 75% | 1017 hPa | 0 mm | - | - | - |
* Rain latest hour (hover to see other rain measurements)
** Current wind speed in m/s (hover to see current wind gust speed)